sensor_id;sensor_type;location;lat;lon;timestamp;temperature;humidity
11538;DHT22;50159;49.426;11.182;2022-07-23T00:01:22;20.00;99.90
11538;DHT22;50159;49.426;11.182;2022-07-23T00:03:53;20.00;99.90
11538;DHT22;50159;49.426;11.182;2022-07-23T00:06:22;20.00;99.90
11538;DHT22;50159;49.426;11.182;2022-07-23T00:08:50;19.90;99.90
11538;DHT22;50159;49.426;11.182;2022-07-23T00:11:18;19.80;99.90
11538;DHT22;50159;49.426;11.182;2022-07-23T00:13:45;19.80;99.90
11538;DHT22;50159;49.426;11.182;2022-07-23T00:16:12;19.70;99.90
11538;DHT22;50159;49.426;11.182;2022-07-23T00:18:39;19.60;99.90
11538;DHT22;50159;49.426;11.182;2022-07-23T00:21:06;19.60;99.90
11538;DHT22;50159;49.426;11.182;2022-07-23T00:23:33;19.60;99.90
11538;DHT22;50159;49.426;11.182;2022-07-23T00:26:00;19.60;99.90
11538;DHT22;50159;49.426;11.182;2022-07-23T00:28:27;19.60;99.90
11538;DHT22;50159;49.426;11.182;2022-07-23T00:30:53;19.50;99.90
11538;DHT22;50159;49.426;11.182;2022-07-23T00:33:20;19.50;99.90
11538;DHT22;50159;49.426;11.182;2022-07-23T00:35:47;19.50;99.90
11538;DHT22;50159;49.426;11.182;2022-07-23T00:38:15;19.60;99.90
11538;DHT22;50159;49.426;11.182;2022-07-23T00:40:42;19.50;99.90
11538;DHT22;50159;49.426;11.182;2022-07-23T00:43:08;19.50;99.90
11538;DHT22;50159;49.426;11.182;2022-07-23T00:45:36;19.50;99.90
11538;DHT22;50159;49.426;11.182;2022-07-23T00:48:03;19.50;99.90
11538;DHT22;50159;49.426;11.182;2022-07-23T00:50:30;19.50;99.90
11538;DHT22;50159;49.426;11.182;2022-07-23T00:52:57;19.40;99.90
11538;DHT22;50159;49.426;11.182;2022-07-23T00:55:24;19.40;99.90
11538;DHT22;50159;49.426;11.182;2022-07-23T00:57:52;19.40;99.90
11538;DHT22;50159;49.426;11.182;2022-07-23T01:00:22;19.40;99.90
11538;DHT22;50159;49.426;11.182;2022-07-23T01:02:49;19.40;99.90
11538;DHT22;50159;49.426;11.182;2022-07-23T01:05:16;19.30;99.90
11538;DHT22;50159;49.426;11.182;2022-07-23T01:07:44;19.30;99.90
11538;DHT22;50159;49.426;11.182;2022-07-23T01:10:12;19.20;99.90
11538;DHT22;50159;49.426;11.182;2022-07-23T01:13:01;19.20;99.90
11538;DHT22;50159;49.426;11.182;2022-07-23T01:15:33;19.20;99.90
11538;DHT22;50159;49.426;11.182;2022-07-23T01:18:03;19.20;99.90
11538;DHT22;50159;49.426;11.182;2022-07-23T01:20:32;19.20;99.90
11538;DHT22;50159;49.426;11.182;2022-07-23T01:22:59;19.20;99.90
11538;DHT22;50159;49.426;11.182;2022-07-23T01:25:26;19.20;99.90
11538;DHT22;50159;49.426;11.182;2022-07-23T01:27:54;19.20;99.90
11538;DHT22;50159;49.426;11.182;2022-07-23T01:30:21;19.20;99.90
11538;DHT22;50159;49.426;11.182;2022-07-23T01:32:48;19.20;99.90
11538;DHT22;50159;49.426;11.182;2022-07-23T01:35:14;19.20;99.90
11538;DHT22;50159;49.426;11.182;2022-07-23T01:37:41;19.20;99.90
11538;DHT22;50159;49.426;11.182;2022-07-23T01:40:08;19.30;99.90
11538;DHT22;50159;49.426;11.182;2022-07-23T01:42:35;19.30;99.90
11538;DHT22;50159;49.426;11.182;2022-07-23T01:45:04;19.30;99.90
11538;DHT22;50159;49.426;11.182;2022-07-23T01:47:32;19.20;99.90
11538;DHT22;50159;49.426;11.182;2022-07-23T01:49:59;19.20;99.90
11538;DHT22;50159;49.426;11.182;2022-07-23T01:52:26;19.20;99.90
11538;DHT22;50159;49.426;11.182;2022-07-23T01:54:53;19.10;99.90
11538;DHT22;50159;49.426;11.182;2022-07-23T01:57:19;19.20;99.90
11538;DHT22;50159;49.426;11.182;2022-07-23T01:59:46;19.20;99.90
11538;DHT22;50159;49.426;11.182;2022-07-23T02:02:13;19.20;99.90
11538;DHT22;50159;49.426;11.182;2022-07-23T02:04:40;19.20;99.90
11538;DHT22;50159;49.426;11.182;2022-07-23T02:07:07;19.10;99.90
11538;DHT22;50159;49.426;11.182;2022-07-23T02:09:34;19.10;99.90
11538;DHT22;50159;49.426;11.182;2022-07-23T02:12:01;19.10;99.90
11538;DHT22;50159;49.426;11.182;2022-07-23T02:14:29;19.10;99.90
11538;DHT22;50159;49.426;11.182;2022-07-23T02:16:58;19.10;99.90
11538;DHT22;50159;49.426;11.182;2022-07-23T02:19:25;19.00;99.90
11538;DHT22;50159;49.426;11.182;2022-07-23T02:21:52;19.00;99.90
11538;DHT22;50159;49.426;11.182;2022-07-23T02:24:19;19.00;99.90
11538;DHT22;50159;49.426;11.182;2022-07-23T02:26:45;19.00;99.90
11538;DHT22;50159;49.426;11.182;2022-07-23T02:29:12;19.00;99.90
11538;DHT22;50159;49.426;11.182;2022-07-23T02:31:39;18.90;99.90
11538;DHT22;50159;49.426;11.182;2022-07-23T02:34:06;18.90;99.90
11538;DHT22;50159;49.426;11.182;2022-07-23T02:36:33;18.90;99.90
11538;DHT22;50159;49.426;11.182;2022-07-23T02:39:00;18.90;99.90
11538;DHT22;50159;49.426;11.182;2022-07-23T02:41:27;18.90;99.90
11538;DHT22;50159;49.426;11.182;2022-07-23T02:43:54;18.90;99.90
11538;DHT22;50159;49.426;11.182;2022-07-23T02:46:21;18.90;99.90
11538;DHT22;50159;49.426;11.182;2022-07-23T02:48:48;19.00;99.90
11538;DHT22;50159;49.426;11.182;2022-07-23T02:51:15;19.00;99.90
11538;DHT22;50159;49.426;11.182;2022-07-23T02:53:42;19.00;99.90
11538;DHT22;50159;49.426;11.182;2022-07-23T02:56:09;19.00;99.90
11538;DHT22;50159;49.426;11.182;2022-07-23T02:58:36;18.90;99.90
11538;DHT22;50159;49.426;11.182;2022-07-23T03:01:03;18.90;99.90
11538;DHT22;50159;49.426;11.182;2022-07-23T03:03:30;18.80;99.90
11538;DHT22;50159;49.426;11.182;2022-07-23T03:05:57;18.80;99.90
11538;DHT22;50159;49.426;11.182;2022-07-23T03:08:24;18.80;99.90
11538;DHT22;50159;49.426;11.182;2022-07-23T03:10:51;18.80;99.90
11538;DHT22;50159;49.426;11.182;2022-07-23T03:13:19;18.70;99.90
11538;DHT22;50159;49.426;11.182;2022-07-23T03:15:45;18.70;99.90
11538;DHT22;50159;49.426;11.182;2022-07-23T03:18:13;18.70;99.90
11538;DHT22;50159;49.426;11.182;2022-07-23T03:20:40;18.60;99.90
11538;DHT22;50159;49.426;11.182;2022-07-23T03:23:07;18.60;99.90
11538;DHT22;50159;49.426;11.182;2022-07-23T03:25:34;18.60;99.90
11538;DHT22;50159;49.426;11.182;2022-07-23T03:28:00;18.60;99.90
11538;DHT22;50159;49.426;11.182;2022-07-23T03:30:27;18.50;99.90
11538;DHT22;50159;49.426;11.182;2022-07-23T03:32:54;18.50;99.90
11538;DHT22;50159;49.426;11.182;2022-07-23T03:35:21;18.50;99.90
11538;DHT22;50159;49.426;11.182;2022-07-23T03:37:48;18.50;99.90
11538;DHT22;50159;49.426;11.182;2022-07-23T03:40:15;18.50;99.90
11538;DHT22;50159;49.426;11.182;2022-07-23T03:42:42;18.50;99.90
11538;DHT22;50159;49.426;11.182;2022-07-23T03:45:10;18.50;99.90
11538;DHT22;50159;49.426;11.182;2022-07-23T03:47:37;18.50;99.90
11538;DHT22;50159;49.426;11.182;2022-07-23T03:50:05;18.50;99.90
11538;DHT22;50159;49.426;11.182;2022-07-23T03:52:34;18.50;99.90
11538;DHT22;50159;49.426;11.182;2022-07-23T03:55:02;18.40;99.90
11538;DHT22;50159;49.426;11.182;2022-07-23T03:57:30;18.40;99.90
11538;DHT22;50159;49.426;11.182;2022-07-23T03:59:56;18.40;99.90
11538;DHT22;50159;49.426;11.182;2022-07-23T04:02:23;18.40;99.90
11538;DHT22;50159;49.426;11.182;2022-07-23T04:04:51;18.30;99.90
11538;DHT22;50159;49.426;11.182;2022-07-23T04:07:18;18.30;99.90
11538;DHT22;50159;49.426;11.182;2022-07-23T04:09:44;18.30;99.90
11538;DHT22;50159;49.426;11.182;2022-07-23T04:12:12;18.30;99.90
11538;DHT22;50159;49.426;11.182;2022-07-23T04:14:39;18.30;99.90
11538;DHT22;50159;49.426;11.182;2022-07-23T04:17:06;18.30;99.90
11538;DHT22;50159;49.426;11.182;2022-07-23T04:19:33;18.30;99.90
11538;DHT22;50159;49.426;11.182;2022-07-23T04:22:02;18.30;99.90
11538;DHT22;50159;49.426;11.182;2022-07-23T04:24:28;18.30;99.90
11538;DHT22;50159;49.426;11.182;2022-07-23T04:26:55;18.30;99.90
11538;DHT22;50159;49.426;11.182;2022-07-23T04:29:22;18.30;99.90
11538;DHT22;50159;49.426;11.182;2022-07-23T04:31:49;18.30;99.90
11538;DHT22;50159;49.426;11.182;2022-07-23T04:34:16;18.30;99.90
11538;DHT22;50159;49.426;11.182;2022-07-23T04:36:43;18.30;99.90
11538;DHT22;50159;49.426;11.182;2022-07-23T04:39:10;18.40;99.90
11538;DHT22;50159;49.426;11.182;2022-07-23T04:41:36;18.40;99.90
11538;DHT22;50159;49.426;11.182;2022-07-23T04:44:03;18.40;99.90
11538;DHT22;50159;49.426;11.182;2022-07-23T04:46:30;18.50;99.90
11538;DHT22;50159;49.426;11.182;2022-07-23T04:48:57;18.50;99.90
11538;DHT22;50159;49.426;11.182;2022-07-23T04:51:25;18.60;99.90
11538;DHT22;50159;49.426;11.182;2022-07-23T04:53:51;18.60;99.90
11538;DHT22;50159;49.426;11.182;2022-07-23T04:56:18;18.60;99.90
11538;DHT22;50159;49.426;11.182;2022-07-23T04:58:45;18.70;99.90
11538;DHT22;50159;49.426;11.182;2022-07-23T05:01:12;18.70;99.90
11538;DHT22;50159;49.426;11.182;2022-07-23T05:03:39;18.70;99.90
11538;DHT22;50159;49.426;11.182;2022-07-23T05:06:06;18.80;99.90
11538;DHT22;50159;49.426;11.182;2022-07-23T05:08:32;18.80;99.90
11538;DHT22;50159;49.426;11.182;2022-07-23T05:10:59;18.90;99.90
11538;DHT22;50159;49.426;11.182;2022-07-23T05:13:26;19.00;99.90
11538;DHT22;50159;49.426;11.182;2022-07-23T05:15:53;19.00;99.90
11538;DHT22;50159;49.426;11.182;2022-07-23T05:18:20;19.10;99.90
11538;DHT22;50159;49.426;11.182;2022-07-23T05:20:47;19.10;99.90
11538;DHT22;50159;49.426;11.182;2022-07-23T05:23:14;19.20;99.90
11538;DHT22;50159;49.426;11.182;2022-07-23T05:25:41;19.20;99.90
11538;DHT22;50159;49.426;11.182;2022-07-23T05:28:08;19.30;99.90
11538;DHT22;50159;49.426;11.182;2022-07-23T05:30:35;19.40;99.90
11538;DHT22;50159;49.426;11.182;2022-07-23T05:33:01;19.50;99.90
11538;DHT22;50159;49.426;11.182;2022-07-23T05:35:28;19.50;99.90
11538;DHT22;50159;49.426;11.182;2022-07-23T05:37:55;19.70;99.90
11538;DHT22;50159;49.426;11.182;2022-07-23T05:40:22;19.80;99.90
11538;DHT22;50159;49.426;11.182;2022-07-23T05:42:49;19.80;99.90
11538;DHT22;50159;49.426;11.182;2022-07-23T05:45:16;19.90;99.90
11538;DHT22;50159;49.426;11.182;2022-07-23T05:47:47;20.10;99.90
11538;DHT22;50159;49.426;11.182;2022-07-23T05:50:16;20.20;99.90
11538;DHT22;50159;49.426;11.182;2022-07-23T05:52:43;20.30;99.90
11538;DHT22;50159;49.426;11.182;2022-07-23T05:55:10;20.50;99.90
11538;DHT22;50159;49.426;11.182;2022-07-23T05:57:39;20.60;99.90
11538;DHT22;50159;49.426;11.182;2022-07-23T06:00:08;20.80;99.90
11538;DHT22;50159;49.426;11.182;2022-07-23T06:02:38;21.00;99.90
11538;DHT22;50159;49.426;11.182;2022-07-23T06:05:05;21.20;99.90
11538;DHT22;50159;49.426;11.182;2022-07-23T06:07:35;21.30;99.90
11538;DHT22;50159;49.426;11.182;2022-07-23T06:10:02;21.40;99.90
11538;DHT22;50159;49.426;11.182;2022-07-23T06:12:30;21.50;99.90
11538;DHT22;50159;49.426;11.182;2022-07-23T06:14:57;21.60;99.90
11538;DHT22;50159;49.426;11.182;2022-07-23T06:17:25;21.80;99.90
11538;DHT22;50159;49.426;11.182;2022-07-23T06:19:53;21.80;99.90
11538;DHT22;50159;49.426;11.182;2022-07-23T06:22:20;21.90;99.90
11538;DHT22;50159;49.426;11.182;2022-07-23T06:24:48;22.00;99.90
11538;DHT22;50159;49.426;11.182;2022-07-23T06:27:15;22.10;99.90
11538;DHT22;50159;49.426;11.182;2022-07-23T06:29:43;22.20;99.90
11538;DHT22;50159;49.426;11.182;2022-07-23T06:32:10;22.40;99.90
11538;DHT22;50159;49.426;11.182;2022-07-23T06:34:37;22.50;99.90
11538;DHT22;50159;49.426;11.182;2022-07-23T06:37:03;22.60;99.50
11538;DHT22;50159;49.426;11.182;2022-07-23T06:39:30;22.80;98.50
11538;DHT22;50159;49.426;11.182;2022-07-23T06:41:58;22.90;97.90
11538;DHT22;50159;49.426;11.182;2022-07-23T06:44:26;23.10;97.10
11538;DHT22;50159;49.426;11.182;2022-07-23T06:46:53;23.20;96.50
11538;DHT22;50159;49.426;11.182;2022-07-23T06:49:20;23.30;95.30
11538;DHT22;50159;49.426;11.182;2022-07-23T06:51:47;23.50;94.20
11538;DHT22;50159;49.426;11.182;2022-07-23T06:54:14;23.60;92.60
11538;DHT22;50159;49.426;11.182;2022-07-23T06:56:40;23.70;91.20
11538;DHT22;50159;49.426;11.182;2022-07-23T06:59:09;23.90;90.30
11538;DHT22;50159;49.426;11.182;2022-07-23T07:01:36;24.10;88.30
11538;DHT22;50159;49.426;11.182;2022-07-23T07:04:03;24.40;88.30
11538;DHT22;50159;49.426;11.182;2022-07-23T07:06:30;24.60;86.40
11538;DHT22;50159;49.426;11.182;2022-07-23T07:08:56;24.80;84.50
11538;DHT22;50159;49.426;11.182;2022-07-23T07:11:23;25.00;82.70
11538;DHT22;50159;49.426;11.182;2022-07-23T07:13:51;25.10;81.00
11538;DHT22;50159;49.426;11.182;2022-07-23T07:16:18;25.20;78.60
11538;DHT22;50159;49.426;11.182;2022-07-23T07:18:45;25.10;77.40
11538;DHT22;50159;49.426;11.182;2022-07-23T07:21:12;25.10;76.30
11538;DHT22;50159;49.426;11.182;2022-07-23T07:23:39;25.10;76.80
11538;DHT22;50159;49.426;11.182;2022-07-23T07:26:06;25.00;77.20
11538;DHT22;50159;49.426;11.182;2022-07-23T07:28:33;24.90;77.10
11538;DHT22;50159;49.426;11.182;2022-07-23T07:31:00;24.90;76.40
11538;DHT22;50159;49.426;11.182;2022-07-23T07:33:27;24.90;76.90
11538;DHT22;50159;49.426;11.182;2022-07-23T07:35:54;24.80;77.60
11538;DHT22;50159;49.426;11.182;2022-07-23T07:38:21;24.80;78.00
11538;DHT22;50159;49.426;11.182;2022-07-23T07:40:48;24.80;78.30
11538;DHT22;50159;49.426;11.182;2022-07-23T07:43:15;24.80;77.90
11538;DHT22;50159;49.426;11.182;2022-07-23T07:45:42;24.90;78.00
11538;DHT22;50159;49.426;11.182;2022-07-23T07:48:08;25.00;76.50
11538;DHT22;50159;49.426;11.182;2022-07-23T07:50:35;25.00;75.90
11538;DHT22;50159;49.426;11.182;2022-07-23T07:53:03;25.00;76.60
11538;DHT22;50159;49.426;11.182;2022-07-23T07:55:30;25.00;76.30
11538;DHT22;50159;49.426;11.182;2022-07-23T07:57:58;24.90;75.40
11538;DHT22;50159;49.426;11.182;2022-07-23T08:00:28;24.80;75.20
11538;DHT22;50159;49.426;11.182;2022-07-23T08:02:55;24.80;75.40
11538;DHT22;50159;49.426;11.182;2022-07-23T08:05:28;24.70;75.70
11538;DHT22;50159;49.426;11.182;2022-07-23T08:07:57;24.60;76.30
11538;DHT22;50159;49.426;11.182;2022-07-23T08:10:26;24.60;77.40
11538;DHT22;50159;49.426;11.182;2022-07-23T08:12:55;24.60;78.00
11538;DHT22;50159;49.426;11.182;2022-07-23T08:15:27;24.60;77.80
11538;DHT22;50159;49.426;11.182;2022-07-23T08:17:55;24.40;77.00
11538;DHT22;50159;49.426;11.182;2022-07-23T08:20:23;24.90;78.00
11538;DHT22;50159;49.426;11.182;2022-07-23T08:25:37;25.60;75.50
11538;DHT22;50159;49.426;11.182;2022-07-23T08:28:07;25.50;73.90
11538;DHT22;50159;49.426;11.182;2022-07-23T08:30:37;25.50;74.00
11538;DHT22;50159;49.426;11.182;2022-07-23T08:33:13;25.40;72.20
11538;DHT22;50159;49.426;11.182;2022-07-23T08:36:00;25.30;71.00
11538;DHT22;50159;49.426;11.182;2022-07-23T08:38:30;25.20;70.70
11538;DHT22;50159;49.426;11.182;2022-07-23T08:40:58;25.10;71.70
11538;DHT22;50159;49.426;11.182;2022-07-23T08:43:28;25.00;70.80
11538;DHT22;50159;49.426;11.182;2022-07-23T08:45:58;24.90;71.90
11538;DHT22;50159;49.426;11.182;2022-07-23T08:48:34;24.70;72.60
11538;DHT22;50159;49.426;11.182;2022-07-23T08:51:06;24.50;73.50
11538;DHT22;50159;49.426;11.182;2022-07-23T08:53:34;24.40;74.20
11538;DHT22;50159;49.426;11.182;2022-07-23T08:56:05;24.30;75.30
11538;DHT22;50159;49.426;11.182;2022-07-23T08:58:35;24.10;76.30
11538;DHT22;50159;49.426;11.182;2022-07-23T09:01:02;24.00;76.40
11538;DHT22;50159;49.426;11.182;2022-07-23T09:03:32;23.80;76.70
11538;DHT22;50159;49.426;11.182;2022-07-23T09:06:02;23.70;76.70
11538;DHT22;50159;49.426;11.182;2022-07-23T09:08:48;23.60;79.10
11538;DHT22;50159;49.426;11.182;2022-07-23T09:11:18;23.30;84.00
11538;DHT22;50159;49.426;11.182;2022-07-23T09:13:51;23.10;89.90
11538;DHT22;50159;49.426;11.182;2022-07-23T09:16:30;22.80;93.00
11538;DHT22;50159;49.426;11.182;2022-07-23T09:19:00;22.50;96.60
11538;DHT22;50159;49.426;11.182;2022-07-23T09:21:36;22.30;99.90
11538;DHT22;50159;49.426;11.182;2022-07-23T09:24:13;22.00;99.90
11538;DHT22;50159;49.426;11.182;2022-07-23T09:26:48;21.80;99.90
11538;DHT22;50159;49.426;11.182;2022-07-23T09:29:23;21.50;99.90
11538;DHT22;50159;49.426;11.182;2022-07-23T09:36:52;20.80;99.90
11538;DHT22;50159;49.426;11.182;2022-07-23T09:39:31;20.60;99.90
11538;DHT22;50159;49.426;11.182;2022-07-23T09:44:49;20.20;99.90
11538;DHT22;50159;49.426;11.182;2022-07-23T09:47:23;20.10;99.90
11538;DHT22;50159;49.426;11.182;2022-07-23T09:50:01;20.00;99.90
11538;DHT22;50159;49.426;11.182;2022-07-23T09:52:46;19.90;99.90
11538;DHT22;50159;49.426;11.182;2022-07-23T09:55:16;19.80;99.90
11538;DHT22;50159;49.426;11.182;2022-07-23T09:57:45;19.90;99.90
11538;DHT22;50159;49.426;11.182;2022-07-23T10:00:13;19.90;99.90
11538;DHT22;50159;49.426;11.182;2022-07-23T10:02:40;19.90;99.90
11538;DHT22;50159;49.426;11.182;2022-07-23T10:05:08;19.80;99.90
11538;DHT22;50159;49.426;11.182;2022-07-23T10:07:37;19.80;99.90
11538;DHT22;50159;49.426;11.182;2022-07-23T10:10:06;19.80;99.90
11538;DHT22;50159;49.426;11.182;2022-07-23T10:12:35;19.80;99.90
11538;DHT22;50159;49.426;11.182;2022-07-23T10:15:17;19.80;99.90
11538;DHT22;50159;49.426;11.182;2022-07-23T10:17:44;19.80;99.90
11538;DHT22;50159;49.426;11.182;2022-07-23T10:20:11;19.80;99.90
11538;DHT22;50159;49.426;11.182;2022-07-23T10:22:42;19.70;99.90
11538;DHT22;50159;49.426;11.182;2022-07-23T10:25:28;19.70;99.90
11538;DHT22;50159;49.426;11.182;2022-07-23T10:37:51;19.80;99.90
11538;DHT22;50159;49.426;11.182;2022-07-23T10:40:30;19.90;99.90
11538;DHT22;50159;49.426;11.182;2022-07-23T10:42:59;20.00;99.90
11538;DHT22;50159;49.426;11.182;2022-07-23T10:45:35;20.00;99.90
11538;DHT22;50159;49.426;11.182;2022-07-23T10:48:17;20.00;99.90
11538;DHT22;50159;49.426;11.182;2022-07-23T10:56:48;19.90;99.90
11538;DHT22;50159;49.426;11.182;2022-07-23T10:59:15;19.90;99.90
11538;DHT22;50159;49.426;11.182;2022-07-23T11:01:42;20.00;99.90
11538;DHT22;50159;49.426;11.182;2022-07-23T11:04:09;20.00;99.90
11538;DHT22;50159;49.426;11.182;2022-07-23T11:20:20;20.90;99.90
11538;DHT22;50159;49.426;11.182;2022-07-23T11:22:59;20.90;99.90
11538;DHT22;50159;49.426;11.182;2022-07-23T11:27:55;21.10;99.90
11538;DHT22;50159;49.426;11.182;2022-07-23T11:30:40;21.30;99.90
11538;DHT22;50159;49.426;11.182;2022-07-23T11:35:39;21.40;99.90
11538;DHT22;50159;49.426;11.182;2022-07-23T11:38:17;21.50;99.90
11538;DHT22;50159;49.426;11.182;2022-07-23T11:40:53;21.50;99.90
11538;DHT22;50159;49.426;11.182;2022-07-23T11:43:22;21.60;99.90
11538;DHT22;50159;49.426;11.182;2022-07-23T11:45:53;21.70;99.90
11538;DHT22;50159;49.426;11.182;2022-07-23T11:48:25;21.70;99.90
11538;DHT22;50159;49.426;11.182;2022-07-23T11:50:55;21.80;99.90
11538;DHT22;50159;49.426;11.182;2022-07-23T11:53:30;22.00;99.90
11538;DHT22;50159;49.426;11.182;2022-07-23T11:56:17;22.40;99.90
11538;DHT22;50159;49.426;11.182;2022-07-23T11:58:55;22.80;99.90
11538;DHT22;50159;49.426;11.182;2022-07-23T12:01:26;23.00;99.90
11538;DHT22;50159;49.426;11.182;2022-07-23T12:03:53;23.20;99.90
11538;DHT22;50159;49.426;11.182;2022-07-23T12:06:20;23.30;99.90
11538;DHT22;50159;49.426;11.182;2022-07-23T12:08:46;23.70;99.90
11538;DHT22;50159;49.426;11.182;2022-07-23T12:11:13;24.00;99.90
11538;DHT22;50159;49.426;11.182;2022-07-23T12:13:40;24.30;99.90
11538;DHT22;50159;49.426;11.182;2022-07-23T12:16:08;24.60;99.90
11538;DHT22;50159;49.426;11.182;2022-07-23T12:18:35;24.90;99.90
11538;DHT22;50159;49.426;11.182;2022-07-23T12:21:04;25.40;99.90
11538;DHT22;50159;49.426;11.182;2022-07-23T12:23:33;25.60;99.90
11538;DHT22;50159;49.426;11.182;2022-07-23T12:26:02;25.90;99.90
11538;DHT22;50159;49.426;11.182;2022-07-23T12:28:31;26.20;99.90
11538;DHT22;50159;49.426;11.182;2022-07-23T12:31:00;26.40;99.90
11538;DHT22;50159;49.426;11.182;2022-07-23T12:33:40;26.50;96.30
11538;DHT22;50159;49.426;11.182;2022-07-23T12:36:08;26.50;93.50
11538;DHT22;50159;49.426;11.182;2022-07-23T12:39:02;26.50;92.90
11538;DHT22;50159;49.426;11.182;2022-07-23T12:41:52;26.60;92.50
11538;DHT22;50159;49.426;11.182;2022-07-23T12:44:19;26.70;92.90
11538;DHT22;50159;49.426;11.182;2022-07-23T12:46:51;26.80;93.00
11538;DHT22;50159;49.426;11.182;2022-07-23T12:49:26;27.00;91.30
11538;DHT22;50159;49.426;11.182;2022-07-23T12:52:17;27.10;92.70
11538;DHT22;50159;49.426;11.182;2022-07-23T12:54:45;27.20;91.60
11538;DHT22;50159;49.426;11.182;2022-07-23T12:57:12;27.20;92.10
11538;DHT22;50159;49.426;11.182;2022-07-23T12:59:39;27.40;92.30
11538;DHT22;50159;49.426;11.182;2022-07-23T13:02:09;27.50;88.60
11538;DHT22;50159;49.426;11.182;2022-07-23T13:04:36;27.50;87.80
11538;DHT22;50159;49.426;11.182;2022-07-23T13:07:04;27.70;85.80
11538;DHT22;50159;49.426;11.182;2022-07-23T13:09:33;27.60;77.40
11538;DHT22;50159;49.426;11.182;2022-07-23T13:12:08;27.60;80.70
11538;DHT22;50159;49.426;11.182;2022-07-23T13:14:55;27.70;78.40
11538;DHT22;50159;49.426;11.182;2022-07-23T13:17:22;27.60;73.60
11538;DHT22;50159;49.426;11.182;2022-07-23T13:19:49;27.40;73.20
11538;DHT22;50159;49.426;11.182;2022-07-23T13:22:16;27.40;77.30
11538;DHT22;50159;49.426;11.182;2022-07-23T13:24:43;27.40;79.50
11538;DHT22;50159;49.426;11.182;2022-07-23T13:27:10;27.40;77.30
11538;DHT22;50159;49.426;11.182;2022-07-23T13:29:39;27.40;75.30
11538;DHT22;50159;49.426;11.182;2022-07-23T13:32:06;27.50;72.50
11538;DHT22;50159;49.426;11.182;2022-07-23T13:34:39;27.70;72.60
11538;DHT22;50159;49.426;11.182;2022-07-23T13:37:07;27.90;71.80
11538;DHT22;50159;49.426;11.182;2022-07-23T13:39:34;28.00;67.30
11538;DHT22;50159;49.426;11.182;2022-07-23T13:42:04;28.10;67.30
11538;DHT22;50159;49.426;11.182;2022-07-23T13:44:34;28.40;67.70
11538;DHT22;50159;49.426;11.182;2022-07-23T13:47:02;28.70;65.90
11538;DHT22;50159;49.426;11.182;2022-07-23T13:49:31;28.90;67.20
11538;DHT22;50159;49.426;11.182;2022-07-23T13:51:57;29.00;67.10
11538;DHT22;50159;49.426;11.182;2022-07-23T13:54:24;29.00;65.90
11538;DHT22;50159;49.426;11.182;2022-07-23T13:56:54;28.90;63.40
11538;DHT22;50159;49.426;11.182;2022-07-23T13:59:22;29.00;61.90
11538;DHT22;50159;49.426;11.182;2022-07-23T14:01:53;29.20;62.60
11538;DHT22;50159;49.426;11.182;2022-07-23T14:04:40;29.50;60.40
11538;DHT22;50159;49.426;11.182;2022-07-23T14:07:08;29.60;59.80
11538;DHT22;50159;49.426;11.182;2022-07-23T14:09:36;29.60;57.60
11538;DHT22;50159;49.426;11.182;2022-07-23T14:12:05;29.30;57.10
11538;DHT22;50159;49.426;11.182;2022-07-23T14:14:33;29.10;58.10
11538;DHT22;50159;49.426;11.182;2022-07-23T14:17:03;29.10;58.60
11538;DHT22;50159;49.426;11.182;2022-07-23T14:19:31;29.00;59.00
11538;DHT22;50159;49.426;11.182;2022-07-23T14:21:58;29.00;59.80
11538;DHT22;50159;49.426;11.182;2022-07-23T14:24:25;29.00;62.70
11538;DHT22;50159;49.426;11.182;2022-07-23T14:27:00;29.00;62.10
11538;DHT22;50159;49.426;11.182;2022-07-23T14:29:28;29.30;60.00
11538;DHT22;50159;49.426;11.182;2022-07-23T14:31:55;29.80;58.90
11538;DHT22;50159;49.426;11.182;2022-07-23T14:34:23;30.40;55.50
11538;DHT22;50159;49.426;11.182;2022-07-23T14:36:54;30.80;53.40
11538;DHT22;50159;49.426;11.182;2022-07-23T14:39:20;31.70;52.50
11538;DHT22;50159;49.426;11.182;2022-07-23T14:41:47;31.90;50.60
11538;DHT22;50159;49.426;11.182;2022-07-23T14:44:15;31.20;51.40
11538;DHT22;50159;49.426;11.182;2022-07-23T14:46:42;30.30;54.20
11538;DHT22;50159;49.426;11.182;2022-07-23T14:49:10;29.70;55.90
11538;DHT22;50159;49.426;11.182;2022-07-23T14:51:37;29.10;57.40
11538;DHT22;50159;49.426;11.182;2022-07-23T14:54:04;28.70;58.20
11538;DHT22;50159;49.426;11.182;2022-07-23T14:56:32;28.60;59.70
11538;DHT22;50159;49.426;11.182;2022-07-23T14:59:00;29.00;59.90
11538;DHT22;50159;49.426;11.182;2022-07-23T15:01:27;30.30;57.80
11538;DHT22;50159;49.426;11.182;2022-07-23T15:03:54;32.10;54.20
11538;DHT22;50159;49.426;11.182;2022-07-23T15:06:25;33.60;48.10
11538;DHT22;50159;49.426;11.182;2022-07-23T15:08:52;34.60;45.80
11538;DHT22;50159;49.426;11.182;2022-07-23T15:11:19;35.10;43.10
11538;DHT22;50159;49.426;11.182;2022-07-23T15:13:46;34.20;42.20
11538;DHT22;50159;49.426;11.182;2022-07-23T15:16:14;33.10;45.30
11538;DHT22;50159;49.426;11.182;2022-07-23T15:18:42;32.30;48.10
11538;DHT22;50159;49.426;11.182;2022-07-23T15:21:09;31.40;48.50
11538;DHT22;50159;49.426;11.182;2022-07-23T15:23:37;30.40;49.90
11538;DHT22;50159;49.426;11.182;2022-07-23T15:26:07;29.80;52.20
11538;DHT22;50159;49.426;11.182;2022-07-23T15:28:35;29.30;54.90
11538;DHT22;50159;49.426;11.182;2022-07-23T15:31:03;28.80;55.50
11538;DHT22;50159;49.426;11.182;2022-07-23T15:33:34;28.60;56.10
11538;DHT22;50159;49.426;11.182;2022-07-23T15:36:03;28.80;56.00
11538;DHT22;50159;49.426;11.182;2022-07-23T15:38:31;28.70;56.10
11538;DHT22;50159;49.426;11.182;2022-07-23T15:40:59;28.60;58.10
11538;DHT22;50159;49.426;11.182;2022-07-23T15:43:26;28.30;58.40
11538;DHT22;50159;49.426;11.182;2022-07-23T15:45:53;28.10;59.10
11538;DHT22;50159;49.426;11.182;2022-07-23T15:48:21;28.00;59.40
11538;DHT22;50159;49.426;11.182;2022-07-23T15:50:49;28.00;60.50
11538;DHT22;50159;49.426;11.182;2022-07-23T15:53:16;28.10;59.10
11538;DHT22;50159;49.426;11.182;2022-07-23T15:56:03;28.20;56.30
11538;DHT22;50159;49.426;11.182;2022-07-23T15:58:41;28.30;55.30
11538;DHT22;50159;49.426;11.182;2022-07-23T16:01:09;28.60;54.00
11538;DHT22;50159;49.426;11.182;2022-07-23T16:03:37;28.90;52.90
11538;DHT22;50159;49.426;11.182;2022-07-23T16:06:05;28.90;51.50
11538;DHT22;50159;49.426;11.182;2022-07-23T16:08:44;28.80;51.20
11538;DHT22;50159;49.426;11.182;2022-07-23T16:11:11;28.60;51.60